sensor_id;sensor_type;location;lat;lon;timestamp;pressure;altitude;pressure_sealevel;temperature;humidity
60087;BME280;45960;53.630;55.972;2022-08-21T00:00:07;101243.06;;;17.77;65.42
60087;BME280;45960;53.630;55.972;2022-08-21T00:01:14;101242.09;;;17.78;65.60
60087;BME280;45960;53.630;55.972;2022-08-21T00:02:20;101238.53;;;17.77;65.55
60087;BME280;45960;53.630;55.972;2022-08-21T00:03:21;101243.06;;;17.77;65.52
60087;BME280;45960;53.630;55.972;2022-08-21T00:04:22;101241.38;;;17.76;65.31
60087;BME280;45960;53.630;55.972;2022-08-21T00:05:23;101234.22;;;17.75;65.41
60087;BME280;45960;53.630;55.972;2022-08-21T00:06:24;101237.91;;;17.74;65.46
60087;BME280;45960;53.630;55.972;2022-08-21T00:07:25;101245.28;;;17.72;65.51
60087;BME280;45960;53.630;55.972;2022-08-21T00:08:26;101243.56;;;17.71;65.72
60087;BME280;45960;53.630;55.972;2022-08-21T00:09:27;101245.53;;;17.68;65.71
60087;BME280;45960;53.630;55.972;2022-08-21T00:10:28;101245.53;;;17.68;65.79
60087;BME280;45960;53.630;55.972;2022-08-21T00:11:29;101233.00;;;17.67;65.62
60087;BME280;45960;53.630;55.972;2022-08-21T00:12:30;101237.53;;;17.67;65.52
60087;BME280;45960;53.630;55.972;2022-08-21T00:13:31;101233.00;;;17.67;65.51
60087;BME280;45960;53.630;55.972;2022-08-21T00:14:33;101239.53;;;17.65;65.58
60087;BME280;45960;53.630;55.972;2022-08-21T00:15:35;101232.25;;;17.65;65.56
60087;BME280;45960;53.630;55.972;2022-08-21T00:16:36;101227.84;;;17.64;65.55
60087;BME280;45960;53.630;55.972;2022-08-21T00:17:37;101241.38;;;17.64;65.59
60087;BME280;45960;53.630;55.972;2022-08-21T00:18:38;101236.94;;;17.63;65.84
60087;BME280;45960;53.630;55.972;2022-08-21T00:19:39;101231.75;;;17.60;65.84
60087;BME280;45960;53.630;55.972;2022-08-21T00:20:41;101238.03;;;17.61;65.72
60087;BME280;45960;53.630;55.972;2022-08-21T00:21:42;101238.88;;;17.61;65.75
60087;BME280;45960;53.630;55.972;2022-08-21T00:22:43;101241.72;;;17.60;65.80
60087;BME280;45960;53.630;55.972;2022-08-21T00:23:44;101243.56;;;17.59;65.68
60087;BME280;45960;53.630;55.972;2022-08-21T00:24:44;101237.31;;;17.59;65.82
60087;BME280;45960;53.630;55.972;2022-08-21T00:25:46;101244.53;;;17.58;65.94
60087;BME280;45960;53.630;55.972;2022-08-21T00:26:47;101239.13;;;17.58;65.90
60087;BME280;45960;53.630;55.972;2022-08-21T00:27:47;101241.81;;;17.58;65.90
60087;BME280;45960;53.630;55.972;2022-08-21T00:28:49;101244.53;;;17.58;65.86
60087;BME280;45960;53.630;55.972;2022-08-21T00:29:49;101235.47;;;17.59;65.94
60087;BME280;45960;53.630;55.972;2022-08-21T00:30:50;101239.13;;;17.58;65.82
60087;BME280;45960;53.630;55.972;2022-08-21T00:31:51;101248.97;;;17.59;65.78
60087;BME280;45960;53.630;55.972;2022-08-21T00:32:53;101241.81;;;17.58;65.98
60087;BME280;45960;53.630;55.972;2022-08-21T00:33:54;101238.28;;;17.58;65.84
60087;BME280;45960;53.630;55.972;2022-08-21T00:34:55;101240.88;;;17.59;65.75
60087;BME280;45960;53.630;55.972;2022-08-21T00:35:56;101241.81;;;17.58;65.92
60087;BME280;45960;53.630;55.972;2022-08-21T00:36:57;101237.41;;;17.57;65.69
60087;BME280;45960;53.630;55.972;2022-08-21T00:37:58;101242.81;;;17.57;65.79
60087;BME280;45960;53.630;55.972;2022-08-21T00:38:59;101244.66;;;17.57;65.85
60087;BME280;45960;53.630;55.972;2022-08-21T00:40:00;101239.38;;;17.55;65.90
60087;BME280;45960;53.630;55.972;2022-08-21T00:41:04;101243.06;;;17.54;65.90
60087;BME280;45960;53.630;55.972;2022-08-21T00:42:05;101241.34;;;17.53;66.05
60087;BME280;45960;53.630;55.972;2022-08-21T00:43:08;101240.63;;;17.51;66.01
60087;BME280;45960;53.630;55.972;2022-08-21T00:44:10;101244.16;;;17.52;66.10
60087;BME280;45960;53.630;55.972;2022-08-21T00:45:12;101242.47;;;17.51;66.20
60087;BME280;45960;53.630;55.972;2022-08-21T00:46:13;101241.56;;;17.50;66.22
60087;BME280;45960;53.630;55.972;2022-08-21T00:47:14;101238.16;;;17.48;66.27
60087;BME280;45960;53.630;55.972;2022-08-21T00:48:15;101247.22;;;17.47;66.19
60087;BME280;45960;53.630;55.972;2022-08-21T00:49:16;101247.22;;;17.47;66.24
60087;BME280;45960;53.630;55.972;2022-08-21T00:50:17;101240.09;;;17.46;66.40
60087;BME280;45960;53.630;55.972;2022-08-21T00:51:19;101244.66;;;17.45;66.29
60087;BME280;45960;53.630;55.972;2022-08-21T00:52:25;101252.88;;;17.44;66.34
60087;BME280;45960;53.630;55.972;2022-08-21T00:53:27;101244.78;;;17.44;66.36
60087;BME280;45960;53.630;55.972;2022-08-21T00:54:29;101243.06;;;17.43;66.42
60087;BME280;45960;53.630;55.972;2022-08-21T00:55:31;101249.41;;;17.42;66.37
60087;BME280;45960;53.630;55.972;2022-08-21T00:56:33;101253.13;;;17.41;66.45
60087;BME280;45960;53.630;55.972;2022-08-21T00:57:45;101251.41;;;17.40;66.47
60087;BME280;45960;53.630;55.972;2022-08-21T00:58:48;101252.25;;;17.40;66.46
60087;BME280;45960;53.630;55.972;2022-08-21T00:59:49;101252.25;;;17.40;66.50
60087;BME280;45960;53.630;55.972;2022-08-21T01:00:52;101251.41;;;17.40;66.59
60087;BME280;45960;53.630;55.972;2022-08-21T01:01:53;101253.25;;;17.39;66.58
60087;BME280;45960;53.630;55.972;2022-08-21T01:02:55;101259.63;;;17.38;66.60
60087;BME280;45960;53.630;55.972;2022-08-21T01:03:56;101256.31;;;17.35;66.58
60087;BME280;45960;53.630;55.972;2022-08-21T01:04:57;101256.31;;;17.35;66.65
60087;BME280;45960;53.630;55.972;2022-08-21T01:05:58;101251.91;;;17.34;66.70
60087;BME280;45960;53.630;55.972;2022-08-21T01:06:59;101262.69;;;17.34;66.76
60087;BME280;45960;53.630;55.972;2022-08-21T01:08:00;101254.69;;;17.32;66.79
60087;BME280;45960;53.630;55.972;2022-08-21T01:09:02;101260.97;;;17.33;66.79
60087;BME280;45960;53.630;55.972;2022-08-21T01:10:04;101255.56;;;17.33;66.71
60087;BME280;45960;53.630;55.972;2022-08-21T01:11:05;101259.25;;;17.32;66.84
60087;BME280;45960;53.630;55.972;2022-08-21T01:12:06;101263.78;;;17.31;66.67
60087;BME280;45960;53.630;55.972;2022-08-21T01:13:07;101258.41;;;17.31;66.74
60087;BME280;45960;53.630;55.972;2022-08-21T01:14:10;101255.78;;;17.30;66.78
60087;BME280;45960;53.630;55.972;2022-08-21T01:15:13;101258.63;;;17.28;66.85
60087;BME280;45960;53.630;55.972;2022-08-21T01:16:17;101268.56;;;17.28;66.88
60087;BME280;45960;53.630;55.972;2022-08-21T01:17:19;101263.16;;;17.28;66.90
60087;BME280;45960;53.630;55.972;2022-08-21T01:18:21;101263.16;;;17.28;66.88
60087;BME280;45960;53.630;55.972;2022-08-21T01:19:22;101263.16;;;17.28;66.69
60087;BME280;45960;53.630;55.972;2022-08-21T01:20:24;101268.56;;;17.28;66.74
60087;BME280;45960;53.630;55.972;2022-08-21T01:21:26;101264.91;;;17.29;66.72
60087;BME280;45960;53.630;55.972;2022-08-21T01:22:27;101268.56;;;17.28;66.88
60087;BME280;45960;53.630;55.972;2022-08-21T01:23:28;101269.53;;;17.27;66.89
60087;BME280;45960;53.630;55.972;2022-08-21T01:24:29;101277.66;;;17.27;66.98
60087;BME280;45960;53.630;55.972;2022-08-21T01:25:32;101266.84;;;17.27;67.00
60087;BME280;45960;53.630;55.972;2022-08-21T01:26:33;101276.66;;;17.28;66.98
60087;BME280;45960;53.630;55.972;2022-08-21T01:27:35;101273.25;;;17.26;67.14
60087;BME280;45960;53.630;55.972;2022-08-21T01:28:40;101275.94;;;17.26;66.99
60087;BME280;45960;53.630;55.972;2022-08-21T01:30:44;101278.63;;;17.26;67.08
60087;BME280;45960;53.630;55.972;2022-08-21T01:31:45;101281.34;;;17.26;67.26
60087;BME280;45960;53.630;55.972;2022-08-21T01:32:46;101282.19;;;17.26;67.09
60087;BME280;45960;53.630;55.972;2022-08-21T01:33:48;101282.19;;;17.26;67.09
60087;BME280;45960;53.630;55.972;2022-08-21T01:34:49;101283.91;;;17.27;67.17
60087;BME280;45960;53.630;55.972;2022-08-21T01:35:51;101281.19;;;17.27;67.34
60087;BME280;45960;53.630;55.972;2022-08-21T01:36:52;101285.66;;;17.28;67.37
60087;BME280;45960;53.630;55.972;2022-08-21T01:37:53;101286.50;;;17.29;67.24
60087;BME280;45960;53.630;55.972;2022-08-21T01:38:54;101287.34;;;17.29;67.48
60087;BME280;45960;53.630;55.972;2022-08-21T01:39:55;101285.50;;;17.30;67.31
60087;BME280;45960;53.630;55.972;2022-08-21T01:40:55;101285.66;;;17.28;67.38
60087;BME280;45960;53.630;55.972;2022-08-21T01:41:56;101290.16;;;17.28;67.59
60087;BME280;45960;53.630;55.972;2022-08-21T01:42:57;101287.34;;;17.29;67.50
60087;BME280;45960;53.630;55.972;2022-08-21T01:43:58;101289.19;;;17.29;67.54
60087;BME280;45960;53.630;55.972;2022-08-21T01:44:59;101292.75;;;17.29;67.57
60087;BME280;45960;53.630;55.972;2022-08-21T01:46:00;101293.63;;;17.30;67.52
60087;BME280;45960;53.630;55.972;2022-08-21T01:47:01;101297.31;;;17.29;67.54
60087;BME280;45960;53.630;55.972;2022-08-21T01:48:03;101296.31;;;17.30;67.70
60087;BME280;45960;53.630;55.972;2022-08-21T01:49:04;101300.72;;;17.31;67.62
60087;BME280;45960;53.630;55.972;2022-08-21T01:50:06;101305.16;;;17.32;67.80
60087;BME280;45960;53.630;55.972;2022-08-21T01:51:07;101296.22;;;17.31;67.76
60087;BME280;45960;53.630;55.972;2022-08-21T01:52:08;101298.78;;;17.33;67.68
60087;BME280;45960;53.630;55.972;2022-08-21T01:53:10;101290.81;;;17.31;67.70
60087;BME280;45960;53.630;55.972;2022-08-21T01:54:10;101294.22;;;17.33;67.73
60087;BME280;45960;53.630;55.972;2022-08-21T01:55:12;101297.81;;;17.34;67.84
60087;BME280;45960;53.630;55.972;2022-08-21T01:56:15;101292.41;;;17.34;67.75
60087;BME280;45960;53.630;55.972;2022-08-21T01:57:16;101297.81;;;17.34;67.90
60087;BME280;45960;53.630;55.972;2022-08-21T01:58:17;101302.22;;;17.35;67.87
60087;BME280;45960;53.630;55.972;2022-08-21T01:59:19;101302.22;;;17.35;67.80
60087;BME280;45960;53.630;55.972;2022-08-21T02:00:20;101301.38;;;17.34;67.84
60087;BME280;45960;53.630;55.972;2022-08-21T02:01:25;101304.94;;;17.35;67.87
60087;BME280;45960;53.630;55.972;2022-08-21T02:02:26;101303.94;;;17.36;67.80
60087;BME280;45960;53.630;55.972;2022-08-21T02:03:27;101305.69;;;17.37;67.86
60087;BME280;45960;53.630;55.972;2022-08-21T02:04:28;101303.69;;;17.39;67.95
60087;BME280;45960;53.630;55.972;2022-08-21T02:05:30;101310.84;;;17.40;67.83
60087;BME280;45960;53.630;55.972;2022-08-21T02:06:31;101308.00;;;17.41;67.88
60087;BME280;45960;53.630;55.972;2022-08-21T02:07:36;101310.59;;;17.43;67.80
60087;BME280;45960;53.630;55.972;2022-08-21T02:08:37;101304.19;;;17.44;67.93
60087;BME280;45960;53.630;55.972;2022-08-21T02:09:38;101312.06;;;17.47;67.95
60087;BME280;45960;53.630;55.972;2022-08-21T02:10:39;101316.50;;;17.48;67.86
60087;BME280;45960;53.630;55.972;2022-08-21T02:11:41;101308.41;;;17.48;67.92
60087;BME280;45960;53.630;55.972;2022-08-21T02:12:42;101307.41;;;17.49;67.95
60087;BME280;45960;53.630;55.972;2022-08-21T02:14:03;101308.16;;;17.51;67.96
60087;BME280;45960;53.630;55.972;2022-08-21T02:15:05;101306.22;;;17.53;68.07
60087;BME280;45960;53.630;55.972;2022-08-21T02:16:07;101308.78;;;17.55;68.00
60087;BME280;45960;53.630;55.972;2022-08-21T02:17:08;101305.97;;;17.56;68.01
60087;BME280;45960;53.630;55.972;2022-08-21T02:18:09;101309.38;;;17.58;68.18
60087;BME280;45960;53.630;55.972;2022-08-21T02:19:10;101305.72;;;17.59;67.96
60087;BME280;45960;53.630;55.972;2022-08-21T02:20:23;101310.13;;;17.60;68.09
60087;BME280;45960;53.630;55.972;2022-08-21T02:21:24;101310.88;;;17.62;68.19
60087;BME280;45960;53.630;55.972;2022-08-21T02:22:25;101306.22;;;17.64;68.17
60087;BME280;45960;53.630;55.972;2022-08-21T02:23:26;101310.63;;;17.65;68.22
60087;BME280;45960;53.630;55.972;2022-08-21T02:24:27;101312.34;;;17.66;68.12
60087;BME280;45960;53.630;55.972;2022-08-21T02:25:28;101308.69;;;17.67;68.26
60087;BME280;45960;53.630;55.972;2022-08-21T02:26:30;101308.44;;;17.71;68.21
60087;BME280;45960;53.630;55.972;2022-08-21T02:27:37;101309.16;;;17.73;68.18
60087;BME280;45960;53.630;55.972;2022-08-21T02:28:38;101253.13;;;17.41;68.11
60087;BME280;45960;53.630;55.972;2022-08-21T02:29:39;101317.03;;;17.76;68.29
60087;BME280;45960;53.630;55.972;2022-08-21T02:30:42;101315.06;;;17.78;68.18
60087;BME280;45960;53.630;55.972;2022-08-21T02:31:43;101319.41;;;17.80;68.32
60087;BME280;45960;53.630;55.972;2022-08-21T02:32:44;101320.00;;;17.84;68.14
60087;BME280;45960;53.630;55.972;2022-08-21T02:33:45;101318.06;;;17.86;68.04
60087;BME280;45960;53.630;55.972;2022-08-21T02:34:46;101318.81;;;17.88;68.04
60087;BME280;45960;53.630;55.972;2022-08-21T02:35:47;101319.53;;;17.90;67.97
60087;BME280;45960;53.630;55.972;2022-08-21T02:36:48;101316.59;;;17.93;67.95
60087;BME280;45960;53.630;55.972;2022-08-21T02:37:51;101321.88;;;17.95;67.93
60087;BME280;45960;53.630;55.972;2022-08-21T02:38:52;101315.34;;;17.97;67.74
60087;BME280;45960;53.630;55.972;2022-08-21T02:39:53;101323.34;;;17.99;67.85
60087;BME280;45960;53.630;55.972;2022-08-21T02:40:55;101322.25;;;18.01;67.52
60087;BME280;45960;53.630;55.972;2022-08-21T02:41:56;101318.44;;;18.04;67.56
60087;BME280;45960;53.630;55.972;2022-08-21T02:42:57;101328.28;;;18.05;67.62
60087;BME280;45960;53.630;55.972;2022-08-21T02:43:59;101332.56;;;18.07;67.60
60087;BME280;45960;53.630;55.972;2022-08-21T02:44:59;101327.16;;;18.07;67.49
60087;BME280;45960;53.630;55.972;2022-08-21T02:46:00;101326.16;;;18.08;67.31
60087;BME280;45960;53.630;55.972;2022-08-21T02:47:02;101316.09;;;18.10;67.15
60087;BME280;45960;53.630;55.972;2022-08-21T02:48:04;101321.50;;;18.10;67.28
60087;BME280;45960;53.630;55.972;2022-08-21T02:49:06;101320.50;;;18.11;67.17
60087;BME280;45960;53.630;55.972;2022-08-21T02:50:07;101320.41;;;18.13;67.04
60087;BME280;45960;53.630;55.972;2022-08-21T02:51:10;101306.75;;;18.15;67.06
60087;BME280;45960;53.630;55.972;2022-08-21T02:52:11;101321.16;;;18.15;66.76
60087;BME280;45960;53.630;55.972;2022-08-21T02:53:12;101319.16;;;18.17;66.82
60087;BME280;45960;53.630;55.972;2022-08-21T02:54:15;101315.59;;;18.17;66.70
60087;BME280;45960;53.630;55.972;2022-08-21T02:55:16;101320.75;;;18.20;66.70
60087;BME280;45960;53.630;55.972;2022-08-21T02:56:18;101315.34;;;18.20;66.78
60087;BME280;45960;53.630;55.972;2022-08-21T02:57:21;101322.50;;;18.21;66.77
60087;BME280;45960;53.630;55.972;2022-08-21T02:58:23;101317.78;;;18.23;66.75
60087;BME280;45960;53.630;55.972;2022-08-21T02:59:24;101316.84;;;18.24;66.74
60087;BME280;45960;53.630;55.972;2022-08-21T03:00:27;101314.84;;;18.26;66.51
60087;BME280;45960;53.630;55.972;2022-08-21T03:01:30;101312.88;;;18.28;66.45
60087;BME280;45960;53.630;55.972;2022-08-21T03:02:31;101312.63;;;18.31;66.37
60087;BME280;45960;53.630;55.972;2022-08-21T03:03:32;101316.94;;;18.33;66.28
60087;BME280;45960;53.630;55.972;2022-08-21T03:04:35;101315.81;;;18.36;66.09
60087;BME280;45960;53.630;55.972;2022-08-21T03:05:36;101315.56;;;18.39;66.31
60087;BME280;45960;53.630;55.972;2022-08-21T03:06:38;101308.19;;;18.41;66.43
60087;BME280;45960;53.630;55.972;2022-08-21T03:07:39;101313.34;;;18.44;66.02
60087;BME280;45960;53.630;55.972;2022-08-21T03:08:40;101307.69;;;18.47;66.20
60087;BME280;45960;53.630;55.972;2022-08-21T03:09:41;101312.84;;;18.50;66.14
60087;BME280;45960;53.630;55.972;2022-08-21T03:10:46;101312.59;;;18.53;66.11
60087;BME280;45960;53.630;55.972;2022-08-21T03:11:47;101310.63;;;18.55;66.03
60087;BME280;45960;53.630;55.972;2022-08-21T03:12:48;101315.78;;;18.59;66.11
60087;BME280;45960;53.630;55.972;2022-08-21T03:13:49;101313.81;;;18.61;66.07
60087;BME280;45960;53.630;55.972;2022-08-21T03:14:50;101318.97;;;18.64;65.88
60087;BME280;45960;53.630;55.972;2022-08-21T03:15:51;101310.59;;;18.67;65.84
60087;BME280;45960;53.630;55.972;2022-08-21T03:16:52;101314.78;;;18.71;65.85
60087;BME280;45960;53.630;55.972;2022-08-21T03:17:52;101311.94;;;18.72;65.67
60087;BME280;45960;53.630;55.972;2022-08-21T03:18:54;101317.97;;;18.76;65.49
60087;BME280;45960;53.630;55.972;2022-08-21T03:19:56;101306.88;;;18.79;65.55
60087;BME280;45960;53.630;55.972;2022-08-21T03:20:58;101312.94;;;18.83;65.47
60087;BME280;45960;53.630;55.972;2022-08-21T03:21:58;101311.81;;;18.85;65.38
60087;BME280;45960;53.630;55.972;2022-08-21T03:23:00;101313.25;;;18.89;65.36
60087;BME280;45960;53.630;55.972;2022-08-21T03:24:01;101313.00;;;18.92;65.47
60087;BME280;45960;53.630;55.972;2022-08-21T03:25:02;101314.47;;;18.96;65.41
60087;BME280;45960;53.630;55.972;2022-08-21T03:26:03;101308.81;;;18.99;65.32
60087;BME280;45960;53.630;55.972;2022-08-21T03:27:04;101315.66;;;19.04;65.24
60087;BME280;45960;53.630;55.972;2022-08-21T03:28:10;101309.97;;;19.07;65.29
60087;BME280;45960;53.630;55.972;2022-08-21T03:29:12;101315.13;;;19.10;65.17
60087;BME280;45960;53.630;55.972;2022-08-21T03:30:13;101316.63;;;19.14;65.13
60087;BME280;45960;53.630;55.972;2022-08-21T03:31:14;101312.63;;;19.18;65.13
60087;BME280;45960;53.630;55.972;2022-08-21T03:32:16;101316.09;;;19.20;65.19
60087;BME280;45960;53.630;55.972;2022-08-21T03:33:17;101310.41;;;19.23;65.04
60087;BME280;45960;53.630;55.972;2022-08-21T03:34:18;101307.44;;;19.26;65.00
60087;BME280;45960;53.630;55.972;2022-08-21T03:35:19;101311.59;;;19.30;64.82
60087;BME280;45960;53.630;55.972;2022-08-21T03:36:21;101305.06;;;19.33;64.64
60087;BME280;45960;53.630;55.972;2022-08-21T03:37:21;101311.94;;;19.37;64.77
60087;BME280;45960;53.630;55.972;2022-08-21T03:38:22;101307.25;;;19.39;64.82
60087;BME280;45960;53.630;55.972;2022-08-21T03:39:23;101312.25;;;19.43;64.66
60087;BME280;45960;53.630;55.972;2022-08-21T03:40:24;101313.72;;;19.48;64.63
60087;BME280;45960;53.630;55.972;2022-08-21T03:41:25;101312.59;;;19.50;64.60
60087;BME280;45960;53.630;55.972;2022-08-21T03:42:26;101313.19;;;19.54;64.51
60087;BME280;45960;53.630;55.972;2022-08-21T03:43:27;101312.91;;;19.57;64.38
60087;BME280;45960;53.630;55.972;2022-08-21T03:44:37;101315.34;;;19.60;64.39
60087;BME280;45960;53.630;55.972;2022-08-21T03:45:40;101315.09;;;19.63;64.20
60087;BME280;45960;53.630;55.972;2022-08-21T03:46:41;101313.88;;;19.67;64.14
60087;BME280;45960;53.630;55.972;2022-08-21T03:47:52;101320.72;;;19.71;64.04
60087;BME280;45960;53.630;55.972;2022-08-21T03:48:54;101314.19;;;19.74;64.16
60087;BME280;45960;53.630;55.972;2022-08-21T03:49:56;101314.75;;;19.77;63.85
60087;BME280;45960;53.630;55.972;2022-08-21T03:50:57;101322.66;;;19.80;63.94
60087;BME280;45960;53.630;55.972;2022-08-21T03:51:58;101326.81;;;19.84;63.86
60087;BME280;45960;53.630;55.972;2022-08-21T03:52:59;101319.41;;;19.86;63.74
60087;BME280;45960;53.630;55.972;2022-08-21T03:54:00;101326.25;;;19.90;63.77
60087;BME280;45960;53.630;55.972;2022-08-21T03:55:01;101326.00;;;19.94;63.66
60087;BME280;45960;53.630;55.972;2022-08-21T03:56:04;101327.44;;;19.98;63.64
60087;BME280;45960;53.630;55.972;2022-08-21T03:57:05;101332.59;;;20.01;63.30
60087;BME280;45960;53.630;55.972;2022-08-21T03:58:06;101328.59;;;20.05;63.48
60087;BME280;45960;53.630;55.972;2022-08-21T03:59:07;101333.75;;;20.08;63.12
60087;BME280;45960;53.630;55.972;2022-08-21T04:00:08;101328.09;;;20.11;63.08
60087;BME280;45960;53.630;55.972;2022-08-21T04:01:11;101329.53;;;20.15;63.24
60087;BME280;45960;53.630;55.972;2022-08-21T04:02:13;101334.66;;;20.18;63.12
60087;BME280;45960;53.630;55.972;2022-08-21T04:03:16;101340.66;;;20.22;63.15
60087;BME280;45960;53.630;55.972;2022-08-21T04:04:17;101337.69;;;20.25;62.91
60087;BME280;45960;53.630;55.972;2022-08-21T04:05:18;101341.00;;;20.28;63.11
60087;BME280;45960;53.630;55.972;2022-08-21T04:06:27;101345.16;;;20.32;62.99
60087;BME280;45960;53.630;55.972;2022-08-21T04:07:28;101336.72;;;20.35;63.09
60087;BME280;45960;53.630;55.972;2022-08-21T04:08:29;101331.91;;;20.39;62.96
60087;BME280;45960;53.630;55.972;2022-08-21T04:09:30;101338.63;;;20.45;63.04
60087;BME280;45960;53.630;55.972;2022-08-21T04:10:32;101332.06;;;20.47;62.75
60087;BME280;45960;53.630;55.972;2022-08-21T04:11:33;101335.34;;;20.51;62.63
60087;BME280;45960;53.630;55.972;2022-08-21T04:12:33;101340.53;;;20.54;62.50
60087;BME280;45960;53.630;55.972;2022-08-21T04:13:34;101334.81;;;20.57;62.27
60087;BME280;45960;53.630;55.972;2022-08-21T04:14:35;101341.69;;;20.61;62.47
60087;BME280;45960;53.630;55.972;2022-08-21T04:15:36;101338.72;;;20.64;62.20
60087;BME280;45960;53.630;55.972;2022-08-21T04:16:37;101348.28;;;20.68;62.44
60087;BME280;45960;53.630;55.972;2022-08-21T04:17:39;101339.00;;;20.71;62.27
60087;BME280;45960;53.630;55.972;2022-08-21T04:18:41;101341.44;;;20.74;61.96
60087;BME280;45960;53.630;55.972;2022-08-21T04:19:43;101343.75;;;20.78;62.07
60087;BME280;45960;53.630;55.972;2022-08-21T04:20:45;101341.59;;;20.82;61.96
60087;BME280;45960;53.630;55.972;2022-08-21T04:21:46;101339.44;;;20.86;61.67
60087;BME280;45960;53.630;55.972;2022-08-21T04:22:47;101347.31;;;20.89;61.81
60087;BME280;45960;53.630;55.972;2022-08-21T04:23:49;101346.91;;;20.93;61.61
60087;BME280;45960;53.630;55.972;2022-08-21T04:24:49;101340.31;;;20.96;61.93
60087;BME280;45960;53.630;55.972;2022-08-21T04:25:51;101347.19;;;21.00;61.73
60087;BME280;45960;53.630;55.972;2022-08-21T04:26:52;101338.75;;;21.03;61.64
60087;BME280;45960;53.630;55.972;2022-08-21T04:27:53;101342.91;;;21.07;61.58
60087;BME280;45960;53.630;55.972;2022-08-21T04:28:54;101340.91;;;21.09;61.47
60087;BME280;45960;53.630;55.972;2022-08-21T04:29:57;101336.91;;;21.13;61.28
60087;BME280;45960;53.630;55.972;2022-08-21T04:30:58;101343.78;;;21.17;60.98
60087;BME280;45960;53.630;55.972;2022-08-21T04:31:59;101340.78;;;21.20;61.02
60087;BME280;45960;53.630;55.972;2022-08-21T04:33:00;101343.19;;;21.23;60.96
60087;BME280;45960;53.630;55.972;2022-08-21T04:34:01;101342.91;;;21.27;60.91
60087;BME280;45960;53.630;55.972;2022-08-21T04:35:04;101340.63;;;21.32;60.75
60087;BME280;45960;53.630;55.972;2022-08-21T04:36:05;101331.44;;;21.33;60.68
60087;BME280;45960;53.630;55.972;2022-08-21T04:37:07;101345.50;;;21.38;60.53
60087;BME280;45960;53.630;55.972;2022-08-21T04:38:08;101339.78;;;21.41;60.49
60087;BME280;45960;53.630;55.972;2022-08-21T04:39:09;101344.91;;;21.44;60.35
60087;BME280;45960;53.630;55.972;2022-08-21T04:40:10;101346.34;;;21.48;60.15
60087;BME280;45960;53.630;55.972;2022-08-21T04:41:12;101337.91;;;21.51;60.20
60087;BME280;45960;53.630;55.972;2022-08-21T04:42:13;101345.78;;;21.54;60.23
60087;BME280;45960;53.630;55.972;2022-08-21T04:43:14;101340.03;;;21.57;60.00
60087;BME280;45960;53.630;55.972;2022-08-21T04:44:15;101338.72;;;21.61;59.92
60087;BME280;45960;53.630;55.972;2022-08-21T04:45:21;101342.03;;;21.65;59.71
60087;BME280;45960;53.630;55.972;2022-08-21T04:46:22;101341.59;;;21.70;59.90
60087;BME280;45960;53.630;55.972;2022-08-21T04:47:24;101342.31;;;21.72;59.60
60087;BME280;45960;53.630;55.972;2022-08-21T04:48:25;101341.00;;;21.76;59.55
60087;BME280;45960;53.630;55.972;2022-08-21T04:49:26;101337.84;;;21.80;59.51
60087;BME280;45960;53.630;55.972;2022-08-21T04:50:28;101334.81;;;21.83;59.43
60087;BME280;45960;53.630;55.972;2022-08-21T04:51:38;101342.56;;;21.88;59.38
60087;BME280;45960;53.630;55.972;2022-08-21T04:52:41;101331.38;;;21.91;59.35
60087;BME280;45960;53.630;55.972;2022-08-21T04:53:43;101333.78;;;21.94;59.34
60087;BME280;45960;53.630;55.972;2022-08-21T04:54:46;101329.75;;;21.98;59.25
60087;BME280;45960;53.630;55.972;2022-08-21T04:55:48;101333.91;;;22.02;59.25
60087;BME280;45960;53.630;55.972;2022-08-21T04:56:54;101328.88;;;22.07;59.11
60087;BME280;45960;53.630;55.972;2022-08-21T04:57:56;101329.56;;;22.09;59.32
60087;BME280;45960;53.630;55.972;2022-08-21T04:58:58;101327.13;;;22.16;59.40
60087;BME280;45960;53.630;55.972;2022-08-21T05:00:00;101324.13;;;22.19;59.22
60087;BME280;45960;53.630;55.972;2022-08-21T05:01:01;101330.13;;;22.23;59.10
60087;BME280;45960;53.630;55.972;2022-08-21T05:02:03;101338.84;;;22.26;59.17
60087;BME280;45960;53.630;55.972;2022-08-21T05:03:05;101331.25;;;22.30;58.78
60087;BME280;45960;53.630;55.972;2022-08-21T05:04:09;101331.78;;;22.33;58.84
60087;BME280;45960;53.630;55.972;2022-08-21T05:05:11;101332.34;;;22.37;58.74
60087;BME280;45960;53.630;55.972;2022-08-21T05:06:12;101328.31;;;22.41;58.46
60087;BME280;45960;53.630;55.972;2022-08-21T05:07:16;101335.16;;;22.45;58.44
60087;BME280;45960;53.630;55.972;2022-08-21T05:08:19;101329.41;;;22.48;58.56
60087;BME280;45960;53.630;55.972;2022-08-21T05:09:21;101329.81;;;22.53;58.54
60087;BME280;45960;53.630;55.972;2022-08-21T05:10:24;101331.25;;;22.58;58.45
60087;BME280;45960;53.630;55.972;2022-08-21T05:11:26;101329.91;;;22.62;58.34
60087;BME280;45960;53.630;55.972;2022-08-21T05:12:26;101329.59;;;22.65;58.38
60087;BME280;45960;53.630;55.972;2022-08-21T05:13:27;101331.03;;;22.69;58.35
60087;BME280;45960;53.630;55.972;2022-08-21T05:14:28;101326.13;;;22.72;58.15
60087;BME280;45960;53.630;55.972;2022-08-21T05:15:29;101336.56;;;22.77;58.26
60087;BME280;45960;53.630;55.972;2022-08-21T05:16:31;101327.19;;;22.79;57.93
60087;BME280;45960;53.630;55.972;2022-08-21T05:17:31;101323.31;;;22.82;57.76
60087;BME280;45960;53.630;55.972;2022-08-21T05:18:32;101323.72;;;22.87;57.85
60087;BME280;45960;53.630;55.972;2022-08-21T05:19:33;101323.41;;;22.90;57.83